sensor_id;sensor_type;location;lat;lon;timestamp;temperature;humidity
21312;DHT22;18076;52.154;10.570;2022-07-17T00:01:12;12.80;99.90
21312;DHT22;18076;52.154;10.570;2022-07-17T00:03:38;12.80;99.90
21312;DHT22;18076;52.154;10.570;2022-07-17T00:06:04;12.70;99.90
21312;DHT22;18076;52.154;10.570;2022-07-17T00:08:29;12.70;99.90
21312;DHT22;18076;52.154;10.570;2022-07-17T00:10:57;12.70;99.90
21312;DHT22;18076;52.154;10.570;2022-07-17T00:13:23;12.70;99.90
21312;DHT22;18076;52.154;10.570;2022-07-17T00:15:49;12.60;99.90
21312;DHT22;18076;52.154;10.570;2022-07-17T00:18:14;12.50;99.90
21312;DHT22;18076;52.154;10.570;2022-07-17T00:20:40;12.40;99.90
21312;DHT22;18076;52.154;10.570;2022-07-17T00:23:05;12.30;99.90
21312;DHT22;18076;52.154;10.570;2022-07-17T00:25:31;12.20;99.90
21312;DHT22;18076;52.154;10.570;2022-07-17T00:27:59;12.20;99.90
21312;DHT22;18076;52.154;10.570;2022-07-17T00:30:25;12.10;99.90
21312;DHT22;18076;52.154;10.570;2022-07-17T00:32:50;12.10;99.90
21312;DHT22;18076;52.154;10.570;2022-07-17T00:35:16;12.10;99.90
21312;DHT22;18076;52.154;10.570;2022-07-17T00:37:42;12.10;99.90
21312;DHT22;18076;52.154;10.570;2022-07-17T00:40:09;12.00;99.90
21312;DHT22;18076;52.154;10.570;2022-07-17T00:42:35;12.00;99.90
21312;DHT22;18076;52.154;10.570;2022-07-17T00:45:00;11.90;99.90
21312;DHT22;18076;52.154;10.570;2022-07-17T00:47:26;11.90;99.90
21312;DHT22;18076;52.154;10.570;2022-07-17T00:49:51;11.80;99.90
21312;DHT22;18076;52.154;10.570;2022-07-17T00:52:18;11.70;99.90
21312;DHT22;18076;52.154;10.570;2022-07-17T00:54:44;11.60;99.90
21312;DHT22;18076;52.154;10.570;2022-07-17T00:57:11;11.60;99.90
21312;DHT22;18076;52.154;10.570;2022-07-17T00:59:37;11.50;99.90
21312;DHT22;18076;52.154;10.570;2022-07-17T01:02:04;11.50;99.90
21312;DHT22;18076;52.154;10.570;2022-07-17T01:04:30;11.50;99.90
21312;DHT22;18076;52.154;10.570;2022-07-17T01:06:57;11.40;99.90
21312;DHT22;18076;52.154;10.570;2022-07-17T01:09:22;11.40;99.90
21312;DHT22;18076;52.154;10.570;2022-07-17T01:11:48;11.30;99.90
21312;DHT22;18076;52.154;10.570;2022-07-17T01:14:14;11.20;99.90
21312;DHT22;18076;52.154;10.570;2022-07-17T01:16:39;11.20;99.90
21312;DHT22;18076;52.154;10.570;2022-07-17T01:19:06;11.20;99.90
21312;DHT22;18076;52.154;10.570;2022-07-17T01:21:42;11.10;99.90
21312;DHT22;18076;52.154;10.570;2022-07-17T01:24:08;11.10;99.90
21312;DHT22;18076;52.154;10.570;2022-07-17T01:26:33;11.10;99.90
21312;DHT22;18076;52.154;10.570;2022-07-17T01:28:59;11.00;99.90
21312;DHT22;18076;52.154;10.570;2022-07-17T01:31:24;11.00;99.90
21312;DHT22;18076;52.154;10.570;2022-07-17T01:33:50;11.00;99.90
21312;DHT22;18076;52.154;10.570;2022-07-17T01:36:15;11.00;99.90
21312;DHT22;18076;52.154;10.570;2022-07-17T01:38:41;10.90;99.90
21312;DHT22;18076;52.154;10.570;2022-07-17T01:41:06;10.90;99.90
21312;DHT22;18076;52.154;10.570;2022-07-17T01:43:32;10.90;99.90
21312;DHT22;18076;52.154;10.570;2022-07-17T01:45:58;10.90;99.90
21312;DHT22;18076;52.154;10.570;2022-07-17T01:48:24;10.80;99.90
21312;DHT22;18076;52.154;10.570;2022-07-17T01:50:50;10.80;99.90
21312;DHT22;18076;52.154;10.570;2022-07-17T01:53:15;10.80;99.90
21312;DHT22;18076;52.154;10.570;2022-07-17T01:55:41;10.70;99.90
21312;DHT22;18076;52.154;10.570;2022-07-17T01:58:06;10.70;99.90
21312;DHT22;18076;52.154;10.570;2022-07-17T02:00:32;10.70;99.90
21312;DHT22;18076;52.154;10.570;2022-07-17T02:02:57;10.70;99.90
21312;DHT22;18076;52.154;10.570;2022-07-17T02:05:23;10.70;99.90
21312;DHT22;18076;52.154;10.570;2022-07-17T02:07:48;10.60;99.90
21312;DHT22;18076;52.154;10.570;2022-07-17T02:10:14;10.60;99.90
21312;DHT22;18076;52.154;10.570;2022-07-17T02:12:40;10.50;99.90
21312;DHT22;18076;52.154;10.570;2022-07-17T02:15:06;10.50;99.90
21312;DHT22;18076;52.154;10.570;2022-07-17T02:17:31;10.40;99.90
21312;DHT22;18076;52.154;10.570;2022-07-17T02:19:57;10.40;99.90
21312;DHT22;18076;52.154;10.570;2022-07-17T02:22:23;10.40;99.90
21312;DHT22;18076;52.154;10.570;2022-07-17T02:24:48;10.40;99.90
21312;DHT22;18076;52.154;10.570;2022-07-17T02:27:14;10.40;99.90
21312;DHT22;18076;52.154;10.570;2022-07-17T02:29:39;10.40;99.90
21312;DHT22;18076;52.154;10.570;2022-07-17T02:32:05;10.40;99.90
21312;DHT22;18076;52.154;10.570;2022-07-17T02:34:31;10.40;99.90
21312;DHT22;18076;52.154;10.570;2022-07-17T02:36:56;10.40;99.90
21312;DHT22;18076;52.154;10.570;2022-07-17T02:39:22;10.40;99.90
21312;DHT22;18076;52.154;10.570;2022-07-17T02:41:47;10.30;99.90
21312;DHT22;18076;52.154;10.570;2022-07-17T02:44:13;10.30;99.90
21312;DHT22;18076;52.154;10.570;2022-07-17T02:46:38;10.30;99.90
21312;DHT22;18076;52.154;10.570;2022-07-17T02:49:04;10.30;99.90
21312;DHT22;18076;52.154;10.570;2022-07-17T02:51:29;10.30;99.90
21312;DHT22;18076;52.154;10.570;2022-07-17T02:53:55;10.30;99.90
21312;DHT22;18076;52.154;10.570;2022-07-17T02:56:21;10.30;99.90
21312;DHT22;18076;52.154;10.570;2022-07-17T02:58:46;10.20;99.90
21312;DHT22;18076;52.154;10.570;2022-07-17T03:01:12;10.20;99.90
21312;DHT22;18076;52.154;10.570;2022-07-17T03:03:37;10.20;99.90
21312;DHT22;18076;52.154;10.570;2022-07-17T03:06:03;10.10;99.90
21312;DHT22;18076;52.154;10.570;2022-07-17T03:08:28;10.10;99.90
21312;DHT22;18076;52.154;10.570;2022-07-17T03:10:54;10.00;99.90
21312;DHT22;18076;52.154;10.570;2022-07-17T03:13:19;9.90;99.90
21312;DHT22;18076;52.154;10.570;2022-07-17T03:15:45;9.90;99.90
21312;DHT22;18076;52.154;10.570;2022-07-17T03:18:10;9.90;99.90
21312;DHT22;18076;52.154;10.570;2022-07-17T03:20:36;9.90;99.90
21312;DHT22;18076;52.154;10.570;2022-07-17T03:23:02;9.90;99.90
21312;DHT22;18076;52.154;10.570;2022-07-17T03:25:27;9.90;99.90
21312;DHT22;18076;52.154;10.570;2022-07-17T03:27:53;9.90;99.90
21312;DHT22;18076;52.154;10.570;2022-07-17T03:30:18;9.90;99.90
21312;DHT22;18076;52.154;10.570;2022-07-17T03:32:44;9.90;99.90
21312;DHT22;18076;52.154;10.570;2022-07-17T03:35:09;9.90;99.90
21312;DHT22;18076;52.154;10.570;2022-07-17T03:37:35;9.80;99.90
21312;DHT22;18076;52.154;10.570;2022-07-17T03:40:03;9.90;99.90
21312;DHT22;18076;52.154;10.570;2022-07-17T03:42:29;9.90;99.90
21312;DHT22;18076;52.154;10.570;2022-07-17T03:44:54;9.90;99.90
21312;DHT22;18076;52.154;10.570;2022-07-17T03:47:20;9.90;99.90
21312;DHT22;18076;52.154;10.570;2022-07-17T03:49:45;9.90;99.90
21312;DHT22;18076;52.154;10.570;2022-07-17T03:52:11;10.00;99.90
21312;DHT22;18076;52.154;10.570;2022-07-17T03:54:36;10.00;99.90
21312;DHT22;18076;52.154;10.570;2022-07-17T03:57:02;10.10;99.90
21312;DHT22;18076;52.154;10.570;2022-07-17T03:59:27;10.10;99.90
21312;DHT22;18076;52.154;10.570;2022-07-17T04:01:53;10.10;99.90
21312;DHT22;18076;52.154;10.570;2022-07-17T04:04:18;10.10;99.90
21312;DHT22;18076;52.154;10.570;2022-07-17T04:06:44;10.10;99.90
21312;DHT22;18076;52.154;10.570;2022-07-17T04:09:10;10.10;99.90
21312;DHT22;18076;52.154;10.570;2022-07-17T04:11:35;10.20;99.90
21312;DHT22;18076;52.154;10.570;2022-07-17T04:14:01;10.20;99.90
21312;DHT22;18076;52.154;10.570;2022-07-17T04:16:26;10.20;99.90
21312;DHT22;18076;52.154;10.570;2022-07-17T04:18:52;10.30;99.90
21312;DHT22;18076;52.154;10.570;2022-07-17T04:21:18;10.30;99.90
21312;DHT22;18076;52.154;10.570;2022-07-17T04:23:44;10.20;99.90
21312;DHT22;18076;52.154;10.570;2022-07-17T04:26:09;10.20;99.90
21312;DHT22;18076;52.154;10.570;2022-07-17T04:28:35;10.20;99.90
21312;DHT22;18076;52.154;10.570;2022-07-17T04:31:01;10.20;99.90
21312;DHT22;18076;52.154;10.570;2022-07-17T04:33:27;10.20;99.90
21312;DHT22;18076;52.154;10.570;2022-07-17T04:35:52;10.20;99.90
21312;DHT22;18076;52.154;10.570;2022-07-17T04:38:18;10.10;99.90
21312;DHT22;18076;52.154;10.570;2022-07-17T04:40:43;10.10;99.90
21312;DHT22;18076;52.154;10.570;2022-07-17T04:43:09;10.10;99.90
21312;DHT22;18076;52.154;10.570;2022-07-17T04:45:34;10.20;99.90
21312;DHT22;18076;52.154;10.570;2022-07-17T04:48:00;10.20;99.90
21312;DHT22;18076;52.154;10.570;2022-07-17T04:50:26;10.30;99.90
21312;DHT22;18076;52.154;10.570;2022-07-17T04:52:52;10.40;99.90
21312;DHT22;18076;52.154;10.570;2022-07-17T04:55:17;10.40;99.90
21312;DHT22;18076;52.154;10.570;2022-07-17T04:57:43;10.60;99.90
21312;DHT22;18076;52.154;10.570;2022-07-17T05:00:09;10.70;99.90
21312;DHT22;18076;52.154;10.570;2022-07-17T05:02:35;10.80;99.90
21312;DHT22;18076;52.154;10.570;2022-07-17T05:05:02;10.70;99.90
21312;DHT22;18076;52.154;10.570;2022-07-17T05:07:28;10.90;99.90
21312;DHT22;18076;52.154;10.570;2022-07-17T05:09:53;11.00;99.90
21312;DHT22;18076;52.154;10.570;2022-07-17T05:12:19;11.20;99.90
21312;DHT22;18076;52.154;10.570;2022-07-17T05:14:44;11.30;99.90
21312;DHT22;18076;52.154;10.570;2022-07-17T05:17:10;11.40;99.90
21312;DHT22;18076;52.154;10.570;2022-07-17T05:19:36;11.60;99.90
21312;DHT22;18076;52.154;10.570;2022-07-17T05:22:02;11.70;99.90
21312;DHT22;18076;52.154;10.570;2022-07-17T05:24:27;11.90;99.90
21312;DHT22;18076;52.154;10.570;2022-07-17T05:26:53;12.10;99.90
21312;DHT22;18076;52.154;10.570;2022-07-17T05:29:18;12.30;99.90
21312;DHT22;18076;52.154;10.570;2022-07-17T05:31:44;12.50;99.90
21312;DHT22;18076;52.154;10.570;2022-07-17T05:34:09;12.70;99.90
21312;DHT22;18076;52.154;10.570;2022-07-17T05:36:35;12.90;99.90
21312;DHT22;18076;52.154;10.570;2022-07-17T05:39:00;13.10;99.90
21312;DHT22;18076;52.154;10.570;2022-07-17T05:41:26;13.30;99.90
21312;DHT22;18076;52.154;10.570;2022-07-17T05:43:51;13.60;99.90
21312;DHT22;18076;52.154;10.570;2022-07-17T05:46:17;13.90;99.90
21312;DHT22;18076;52.154;10.570;2022-07-17T05:48:42;14.10;99.90
21312;DHT22;18076;52.154;10.570;2022-07-17T05:51:08;14.20;99.90
21312;DHT22;18076;52.154;10.570;2022-07-17T05:53:33;14.30;99.90
21312;DHT22;18076;52.154;10.570;2022-07-17T05:55:59;14.40;99.90
21312;DHT22;18076;52.154;10.570;2022-07-17T05:58:25;14.50;99.90
21312;DHT22;18076;52.154;10.570;2022-07-17T06:00:50;14.60;99.90
21312;DHT22;18076;52.154;10.570;2022-07-17T06:03:16;14.70;99.90
21312;DHT22;18076;52.154;10.570;2022-07-17T06:05:42;14.80;99.90
21312;DHT22;18076;52.154;10.570;2022-07-17T06:08:07;15.00;99.90
21312;DHT22;18076;52.154;10.570;2022-07-17T06:10:33;15.30;99.90
21312;DHT22;18076;52.154;10.570;2022-07-17T06:12:59;15.50;99.90
21312;DHT22;18076;52.154;10.570;2022-07-17T06:15:25;15.70;99.90
21312;DHT22;18076;52.154;10.570;2022-07-17T06:17:50;15.90;99.90
21312;DHT22;18076;52.154;10.570;2022-07-17T06:20:16;16.10;99.90
21312;DHT22;18076;52.154;10.570;2022-07-17T06:22:42;16.20;99.90
21312;DHT22;18076;52.154;10.570;2022-07-17T06:25:08;16.40;99.90
21312;DHT22;18076;52.154;10.570;2022-07-17T06:27:34;16.60;99.90
21312;DHT22;18076;52.154;10.570;2022-07-17T06:30:00;16.70;99.90
21312;DHT22;18076;52.154;10.570;2022-07-17T06:32:25;16.80;99.90
21312;DHT22;18076;52.154;10.570;2022-07-17T06:34:51;16.90;99.90
21312;DHT22;18076;52.154;10.570;2022-07-17T06:37:17;17.00;99.90
21312;DHT22;18076;52.154;10.570;2022-07-17T06:39:42;17.10;99.90
21312;DHT22;18076;52.154;10.570;2022-07-17T06:42:08;17.10;99.90
21312;DHT22;18076;52.154;10.570;2022-07-17T06:44:35;17.10;99.90
21312;DHT22;18076;52.154;10.570;2022-07-17T06:47:01;17.10;99.90
21312;DHT22;18076;52.154;10.570;2022-07-17T06:49:26;17.20;99.90
21312;DHT22;18076;52.154;10.570;2022-07-17T06:51:52;17.50;99.90
21312;DHT22;18076;52.154;10.570;2022-07-17T06:54:18;17.70;99.90
21312;DHT22;18076;52.154;10.570;2022-07-17T06:56:43;17.80;99.90
21312;DHT22;18076;52.154;10.570;2022-07-17T06:59:09;17.80;99.90
21312;DHT22;18076;52.154;10.570;2022-07-17T07:01:35;17.70;99.90
21312;DHT22;18076;52.154;10.570;2022-07-17T07:04:00;17.80;99.90
21312;DHT22;18076;52.154;10.570;2022-07-17T07:06:26;17.90;99.90
21312;DHT22;18076;52.154;10.570;2022-07-17T07:08:51;18.20;99.90
21312;DHT22;18076;52.154;10.570;2022-07-17T07:11:17;18.20;99.90
21312;DHT22;18076;52.154;10.570;2022-07-17T07:13:42;18.20;99.90
21312;DHT22;18076;52.154;10.570;2022-07-17T07:16:08;18.20;99.90
21312;DHT22;18076;52.154;10.570;2022-07-17T07:18:33;18.20;99.90
21312;DHT22;18076;52.154;10.570;2022-07-17T07:20:59;18.40;99.90
21312;DHT22;18076;52.154;10.570;2022-07-17T07:23:24;18.70;99.90
21312;DHT22;18076;52.154;10.570;2022-07-17T07:25:51;18.90;99.90
21312;DHT22;18076;52.154;10.570;2022-07-17T07:28:16;19.00;99.90
21312;DHT22;18076;52.154;10.570;2022-07-17T07:30:42;19.30;99.90
21312;DHT22;18076;52.154;10.570;2022-07-17T07:33:07;19.30;99.90
21312;DHT22;18076;52.154;10.570;2022-07-17T07:35:33;19.40;99.90
21312;DHT22;18076;52.154;10.570;2022-07-17T07:37:58;19.60;99.90
21312;DHT22;18076;52.154;10.570;2022-07-17T07:40:24;19.70;99.90
21312;DHT22;18076;52.154;10.570;2022-07-17T07:42:49;19.80;99.90
21312;DHT22;18076;52.154;10.570;2022-07-17T07:45:15;19.90;99.90
21312;DHT22;18076;52.154;10.570;2022-07-17T07:47:42;20.00;99.90
21312;DHT22;18076;52.154;10.570;2022-07-17T07:50:08;20.10;99.90
21312;DHT22;18076;52.154;10.570;2022-07-17T07:52:33;20.00;99.90
21312;DHT22;18076;52.154;10.570;2022-07-17T07:54:59;20.10;99.90
21312;DHT22;18076;52.154;10.570;2022-07-17T07:57:24;20.30;99.90
21312;DHT22;18076;52.154;10.570;2022-07-17T07:59:50;20.20;99.90
21312;DHT22;18076;52.154;10.570;2022-07-17T08:02:15;20.30;99.90
21312;DHT22;18076;52.154;10.570;2022-07-17T08:04:41;20.50;99.90
21312;DHT22;18076;52.154;10.570;2022-07-17T08:07:06;20.80;99.90
21312;DHT22;18076;52.154;10.570;2022-07-17T08:09:32;21.00;99.90
21312;DHT22;18076;52.154;10.570;2022-07-17T08:11:57;20.90;99.90
21312;DHT22;18076;52.154;10.570;2022-07-17T08:14:23;20.90;99.90
21312;DHT22;18076;52.154;10.570;2022-07-17T08:16:49;21.10;99.90
21312;DHT22;18076;52.154;10.570;2022-07-17T08:19:14;21.30;99.90
21312;DHT22;18076;52.154;10.570;2022-07-17T08:21:40;21.30;99.90
21312;DHT22;18076;52.154;10.570;2022-07-17T08:24:05;21.30;99.90
21312;DHT22;18076;52.154;10.570;2022-07-17T08:26:31;21.50;99.90
21312;DHT22;18076;52.154;10.570;2022-07-17T08:28:56;21.30;99.90
21312;DHT22;18076;52.154;10.570;2022-07-17T08:31:22;21.30;99.90
21312;DHT22;18076;52.154;10.570;2022-07-17T08:33:47;21.40;99.90
21312;DHT22;18076;52.154;10.570;2022-07-17T08:36:13;21.60;99.90
21312;DHT22;18076;52.154;10.570;2022-07-17T08:38:38;21.70;99.90
21312;DHT22;18076;52.154;10.570;2022-07-17T08:41:04;21.80;99.90
21312;DHT22;18076;52.154;10.570;2022-07-17T08:43:30;21.90;99.90
21312;DHT22;18076;52.154;10.570;2022-07-17T08:45:55;22.00;99.90
21312;DHT22;18076;52.154;10.570;2022-07-17T08:48:21;21.90;99.90
21312;DHT22;18076;52.154;10.570;2022-07-17T08:50:50;21.90;99.90
21312;DHT22;18076;52.154;10.570;2022-07-17T08:53:15;22.10;99.90
21312;DHT22;18076;52.154;10.570;2022-07-17T08:55:41;22.30;99.80
21312;DHT22;18076;52.154;10.570;2022-07-17T08:58:07;22.50;98.60
21312;DHT22;18076;52.154;10.570;2022-07-17T09:00:33;22.70;98.00
21312;DHT22;18076;52.154;10.570;2022-07-17T09:03:00;23.10;97.70
21312;DHT22;18076;52.154;10.570;2022-07-17T09:05:27;22.80;97.00
21312;DHT22;18076;52.154;10.570;2022-07-17T09:07:53;22.60;96.80
21312;DHT22;18076;52.154;10.570;2022-07-17T09:10:29;22.40;96.20
21312;DHT22;18076;52.154;10.570;2022-07-17T09:12:54;22.20;96.20
21312;DHT22;18076;52.154;10.570;2022-07-17T09:15:20;21.80;96.10
21312;DHT22;18076;52.154;10.570;2022-07-17T09:17:52;21.70;96.90
21312;DHT22;18076;52.154;10.570;2022-07-17T09:20:18;22.00;96.90
21312;DHT22;18076;52.154;10.570;2022-07-17T09:25:44;22.50;95.60
21312;DHT22;18076;52.154;10.570;2022-07-17T09:28:10;22.60;95.20
21312;DHT22;18076;52.154;10.570;2022-07-17T09:30:37;22.70;94.60
21312;DHT22;18076;52.154;10.570;2022-07-17T09:33:04;22.60;94.30
21312;DHT22;18076;52.154;10.570;2022-07-17T09:35:30;22.40;94.10
21312;DHT22;18076;52.154;10.570;2022-07-17T09:37:55;22.90;94.60
21312;DHT22;18076;52.154;10.570;2022-07-17T09:40:21;23.10;93.00
21312;DHT22;18076;52.154;10.570;2022-07-17T09:43:06;23.20;93.40
21312;DHT22;18076;52.154;10.570;2022-07-17T09:45:33;23.20;93.10
21312;DHT22;18076;52.154;10.570;2022-07-17T09:47:59;23.20;92.80
21312;DHT22;18076;52.154;10.570;2022-07-17T09:50:26;23.60;93.30
21312;DHT22;18076;52.154;10.570;2022-07-17T09:52:52;23.90;92.50
21312;DHT22;18076;52.154;10.570;2022-07-17T09:55:20;24.10;92.20
21312;DHT22;18076;52.154;10.570;2022-07-17T09:57:47;24.50;91.50
21312;DHT22;18076;52.154;10.570;2022-07-17T10:00:14;24.20;90.80
21312;DHT22;18076;52.154;10.570;2022-07-17T10:02:43;24.40;90.60
21312;DHT22;18076;52.154;10.570;2022-07-17T10:05:12;24.10;90.40
21312;DHT22;18076;52.154;10.570;2022-07-17T10:07:40;24.30;90.00
21312;DHT22;18076;52.154;10.570;2022-07-17T10:10:07;24.20;90.00
21312;DHT22;18076;52.154;10.570;2022-07-17T10:12:33;24.20;89.40
21312;DHT22;18076;52.154;10.570;2022-07-17T10:14:59;24.20;89.10
21312;DHT22;18076;52.154;10.570;2022-07-17T10:17:25;24.50;89.20
21312;DHT22;18076;52.154;10.570;2022-07-17T10:19:53;24.50;88.90
21312;DHT22;18076;52.154;10.570;2022-07-17T10:22:19;24.70;90.00
21312;DHT22;18076;52.154;10.570;2022-07-17T10:24:48;24.80;88.80
21312;DHT22;18076;52.154;10.570;2022-07-17T10:27:35;25.00;86.30
21312;DHT22;18076;52.154;10.570;2022-07-17T10:30:10;25.20;85.30
21312;DHT22;18076;52.154;10.570;2022-07-17T10:32:36;25.40;83.70
21312;DHT22;18076;52.154;10.570;2022-07-17T10:35:06;25.20;82.10
21312;DHT22;18076;52.154;10.570;2022-07-17T10:37:37;25.40;83.40
21312;DHT22;18076;52.154;10.570;2022-07-17T10:45:18;24.90;82.60
21312;DHT22;18076;52.154;10.570;2022-07-17T10:50:10;24.80;82.30
21312;DHT22;18076;52.154;10.570;2022-07-17T10:52:36;24.80;83.70
21312;DHT22;18076;52.154;10.570;2022-07-17T10:55:01;24.70;82.60
21312;DHT22;18076;52.154;10.570;2022-07-17T10:57:30;24.70;83.10
21312;DHT22;18076;52.154;10.570;2022-07-17T10:59:56;24.60;83.30
21312;DHT22;18076;52.154;10.570;2022-07-17T11:02:31;25.00;82.90
21312;DHT22;18076;52.154;10.570;2022-07-17T11:05:15;25.10;83.50
21312;DHT22;18076;52.154;10.570;2022-07-17T11:08:14;25.20;83.80
21312;DHT22;18076;52.154;10.570;2022-07-17T11:10:35;25.30;82.20
21312;DHT22;18076;52.154;10.570;2022-07-17T11:13:10;25.50;82.80
21312;DHT22;18076;52.154;10.570;2022-07-17T11:15:43;25.40;81.80
21312;DHT22;18076;52.154;10.570;2022-07-17T11:20:54;25.70;82.70
21312;DHT22;18076;52.154;10.570;2022-07-17T11:23:20;26.10;82.60
21312;DHT22;18076;52.154;10.570;2022-07-17T11:30:59;26.60;80.00
21312;DHT22;18076;52.154;10.570;2022-07-17T11:33:24;26.40;79.20
21312;DHT22;18076;52.154;10.570;2022-07-17T11:35:50;25.90;79.50
21312;DHT22;18076;52.154;10.570;2022-07-17T11:38:16;25.90;79.80
21312;DHT22;18076;52.154;10.570;2022-07-17T11:40:48;25.90;78.70
21312;DHT22;18076;52.154;10.570;2022-07-17T11:43:14;25.60;80.70
21312;DHT22;18076;52.154;10.570;2022-07-17T11:45:39;25.80;80.50
21312;DHT22;18076;52.154;10.570;2022-07-17T11:48:06;26.00;80.40
21312;DHT22;18076;52.154;10.570;2022-07-17T11:50:32;26.40;80.40
21312;DHT22;18076;52.154;10.570;2022-07-17T11:53:01;26.40;77.90
21312;DHT22;18076;52.154;10.570;2022-07-17T11:55:40;26.50;79.10
21312;DHT22;18076;52.154;10.570;2022-07-17T11:58:06;26.20;77.70
21312;DHT22;18076;52.154;10.570;2022-07-17T12:00:32;25.80;78.60
21312;DHT22;18076;52.154;10.570;2022-07-17T12:03:02;25.80;79.40
21312;DHT22;18076;52.154;10.570;2022-07-17T12:05:29;25.90;78.30
21312;DHT22;18076;52.154;10.570;2022-07-17T12:07:55;25.70;77.60
21312;DHT22;18076;52.154;10.570;2022-07-17T12:10:21;25.60;78.50
21312;DHT22;18076;52.154;10.570;2022-07-17T12:12:51;26.10;79.30
21312;DHT22;18076;52.154;10.570;2022-07-17T12:15:17;26.40;77.40
21312;DHT22;18076;52.154;10.570;2022-07-17T12:17:43;26.70;76.40
21312;DHT22;18076;52.154;10.570;2022-07-17T12:20:08;26.60;74.70
21312;DHT22;18076;52.154;10.570;2022-07-17T12:22:44;26.40;73.70
21312;DHT22;18076;52.154;10.570;2022-07-17T12:25:20;26.20;74.50
21312;DHT22;18076;52.154;10.570;2022-07-17T12:27:46;26.10;73.60
21312;DHT22;18076;52.154;10.570;2022-07-17T12:30:12;26.10;73.80
21312;DHT22;18076;52.154;10.570;2022-07-17T12:32:41;26.10;74.70
21312;DHT22;18076;52.154;10.570;2022-07-17T12:35:06;26.30;73.90
21312;DHT22;18076;52.154;10.570;2022-07-17T12:37:32;26.30;73.70
21312;DHT22;18076;52.154;10.570;2022-07-17T12:39:58;26.40;73.10
21312;DHT22;18076;52.154;10.570;2022-07-17T12:42:23;26.40;72.90
21312;DHT22;18076;52.154;10.570;2022-07-17T12:44:49;26.10;73.00
21312;DHT22;18076;52.154;10.570;2022-07-17T12:47:14;26.20;72.70
21312;DHT22;18076;52.154;10.570;2022-07-17T12:49:40;26.70;72.90
21312;DHT22;18076;52.154;10.570;2022-07-17T12:52:06;27.00;71.70
21312;DHT22;18076;52.154;10.570;2022-07-17T12:54:32;27.30;71.00
21312;DHT22;18076;52.154;10.570;2022-07-17T12:56:57;27.40;71.30
21312;DHT22;18076;52.154;10.570;2022-07-17T12:59:23;27.40;70.60
21312;DHT22;18076;52.154;10.570;2022-07-17T13:01:49;27.10;70.20
21312;DHT22;18076;52.154;10.570;2022-07-17T13:04:14;27.10;70.20
21312;DHT22;18076;52.154;10.570;2022-07-17T13:06:40;26.90;70.60
21312;DHT22;18076;52.154;10.570;2022-07-17T13:09:06;27.00;71.30
21312;DHT22;18076;52.154;10.570;2022-07-17T13:11:31;27.10;71.50
21312;DHT22;18076;52.154;10.570;2022-07-17T13:13:57;27.30;71.20
21312;DHT22;18076;52.154;10.570;2022-07-17T13:16:23;27.10;72.10
21312;DHT22;18076;52.154;10.570;2022-07-17T13:18:49;27.10;70.90
21312;DHT22;18076;52.154;10.570;2022-07-17T13:21:14;26.90;71.70
21312;DHT22;18076;52.154;10.570;2022-07-17T13:23:40;26.70;69.60
21312;DHT22;18076;52.154;10.570;2022-07-17T13:26:06;26.80;68.90
21312;DHT22;18076;52.154;10.570;2022-07-17T13:28:32;27.00;69.10
21312;DHT22;18076;52.154;10.570;2022-07-17T13:30:57;26.90;69.00
21312;DHT22;18076;52.154;10.570;2022-07-17T13:33:23;26.90;69.70
21312;DHT22;18076;52.154;10.570;2022-07-17T13:35:49;27.00;69.60
21312;DHT22;18076;52.154;10.570;2022-07-17T13:38:14;27.00;69.70
21312;DHT22;18076;52.154;10.570;2022-07-17T13:40:40;26.80;71.00
21312;DHT22;18076;52.154;10.570;2022-07-17T13:43:06;26.60;70.80
21312;DHT22;18076;52.154;10.570;2022-07-17T13:45:32;26.60;70.30
21312;DHT22;18076;52.154;10.570;2022-07-17T13:47:57;26.60;68.50
21312;DHT22;18076;52.154;10.570;2022-07-17T13:50:23;26.70;68.60
21312;DHT22;18076;52.154;10.570;2022-07-17T13:52:49;26.70;68.60
21312;DHT22;18076;52.154;10.570;2022-07-17T13:55:15;26.90;67.90
21312;DHT22;18076;52.154;10.570;2022-07-17T13:57:41;26.90;66.30
21312;DHT22;18076;52.154;10.570;2022-07-17T14:00:07;26.80;67.00
21312;DHT22;18076;52.154;10.570;2022-07-17T14:02:37;26.70;67.80
21312;DHT22;18076;52.154;10.570;2022-07-17T14:05:03;26.70;68.50
21312;DHT22;18076;52.154;10.570;2022-07-17T14:07:29;26.90;67.30
21312;DHT22;18076;52.154;10.570;2022-07-17T14:09:54;27.10;66.90
21312;DHT22;18076;52.154;10.570;2022-07-17T14:12:20;27.20;64.20
21312;DHT22;18076;52.154;10.570;2022-07-17T14:14:45;27.00;63.30
21312;DHT22;18076;52.154;10.570;2022-07-17T14:17:11;26.80;64.60
21312;DHT22;18076;52.154;10.570;2022-07-17T14:19:37;26.80;64.20
21312;DHT22;18076;52.154;10.570;2022-07-17T14:22:03;27.00;63.70
21312;DHT22;18076;52.154;10.570;2022-07-17T14:24:29;27.00;63.60
21312;DHT22;18076;52.154;10.570;2022-07-17T14:26:55;27.00;64.90
21312;DHT22;18076;52.154;10.570;2022-07-17T14:29:20;27.10;65.00
21312;DHT22;18076;52.154;10.570;2022-07-17T14:31:46;27.10;63.60
21312;DHT22;18076;52.154;10.570;2022-07-17T14:34:12;27.20;61.90
21312;DHT22;18076;52.154;10.570;2022-07-17T14:36:38;27.10;61.00
21312;DHT22;18076;52.154;10.570;2022-07-17T14:39:03;27.10;63.00
21312;DHT22;18076;52.154;10.570;2022-07-17T14:41:29;27.00;64.70
21312;DHT22;18076;52.154;10.570;2022-07-17T14:43:54;27.10;64.70
21312;DHT22;18076;52.154;10.570;2022-07-17T14:46:20;27.20;64.80
21312;DHT22;18076;52.154;10.570;2022-07-17T14:48:46;27.30;63.90
21312;DHT22;18076;52.154;10.570;2022-07-17T14:51:12;27.40;64.20
21312;DHT22;18076;52.154;10.570;2022-07-17T14:53:37;27.40;64.60
21312;DHT22;18076;52.154;10.570;2022-07-17T14:56:03;27.60;64.00
21312;DHT22;18076;52.154;10.570;2022-07-17T14:58:29;27.60;62.80
21312;DHT22;18076;52.154;10.570;2022-07-17T15:00:54;27.70;62.80
21312;DHT22;18076;52.154;10.570;2022-07-17T15:03:20;27.40;61.50
21312;DHT22;18076;52.154;10.570;2022-07-17T15:05:45;27.30;62.30
21312;DHT22;18076;52.154;10.570;2022-07-17T15:08:11;27.40;62.40
21312;DHT22;18076;52.154;10.570;2022-07-17T15:10:36;27.60;63.00
21312;DHT22;18076;52.154;10.570;2022-07-17T15:13:02;27.50;60.70
21312;DHT22;18076;52.154;10.570;2022-07-17T15:15:27;27.20;59.80
21312;DHT22;18076;52.154;10.570;2022-07-17T15:17:53;27.00;59.70
21312;DHT22;18076;52.154;10.570;2022-07-17T15:20:18;27.00;60.80
21312;DHT22;18076;52.154;10.570;2022-07-17T15:22:44;26.90;61.30
21312;DHT22;18076;52.154;10.570;2022-07-17T15:25:09;26.80;62.00
21312;DHT22;18076;52.154;10.570;2022-07-17T15:27:35;26.80;61.60
21312;DHT22;18076;52.154;10.570;2022-07-17T15:30:01;26.80;61.90